createdAt,value
2023-01-26T00:01:45.053Z,33.90
2023-01-26T00:04:48.116Z,26.05
2023-01-26T00:07:50.683Z,29.63
2023-01-26T00:10:56.830Z,31.08
2023-01-26T00:14:01.329Z,35.00
2023-01-26T00:17:04.335Z,27.15
2023-01-26T00:20:08.436Z,24.92
2023-01-26T00:23:12.608Z,30.03
2023-01-26T00:26:18.863Z,24.50
2023-01-26T00:29:21.794Z,26.27
2023-01-26T00:32:24.373Z,28.10
2023-01-26T00:35:27.385Z,28.38
2023-01-26T00:38:31.008Z,21.43
2023-01-26T00:41:52.819Z,24.48
2023-01-26T00:44:55.423Z,29.08
2023-01-26T00:48:01.564Z,27.27
2023-01-26T00:51:04.795Z,24.63
2023-01-26T00:54:08.123Z,24.73
2023-01-26T00:57:11.490Z,20.65
2023-01-26T01:00:17.198Z,19.20
2023-01-26T01:03:23.179Z,22.55
2023-01-26T01:06:26.357Z,19.17
2023-01-26T01:09:28.818Z,20.90
2023-01-26T01:12:31.244Z,19.40
2023-01-26T01:15:34.011Z,20.05
2023-01-26T01:18:38.538Z,18.05
2023-01-26T01:21:41.672Z,18.63
2023-01-26T01:24:47.582Z,21.17
2023-01-26T01:27:52.632Z,26.35
2023-01-26T01:30:57.242Z,21.90
2023-01-26T01:34:00.039Z,19.33
2023-01-26T01:37:02.511Z,18.55
2023-01-26T01:40:05.462Z,22.23
2023-01-26T01:43:12.867Z,22.50
2023-01-26T01:46:34.235Z,20.05
2023-01-26T01:49:45.920Z,22.27
2023-01-26T01:52:49.381Z,20.02
2023-01-26T01:55:59.056Z,18.20
2023-01-26T01:59:03.085Z,22.10
2023-01-26T02:02:05.927Z,20.17
2023-01-26T02:05:24.326Z,19.83
2023-01-26T02:08:33.541Z,21.10
2023-01-26T02:11:41.099Z,19.43
2023-01-26T02:14:43.653Z,22.88
2023-01-26T02:17:46.229Z,20.05
2023-01-26T02:20:58.714Z,23.17
2023-01-26T02:24:17.704Z,20.30
2023-01-26T02:27:20.631Z,20.90
2023-01-26T02:30:25.437Z,25.67
2023-01-26T02:33:31.047Z,21.67
2023-01-26T02:36:35.306Z,22.30
2023-01-26T02:39:56.051Z,22.15
2023-01-26T02:42:59.005Z,22.50
2023-01-26T02:46:02.025Z,20.65
2023-01-26T02:49:22.992Z,19.52
2023-01-26T02:52:28.411Z,19.13
2023-01-26T02:55:31.100Z,22.45
2023-01-26T02:58:33.707Z,21.20
2023-01-26T03:01:36.590Z,21.05
2023-01-26T03:04:39.269Z,21.27
2023-01-26T03:07:42.239Z,20.52
2023-01-26T03:10:48.070Z,21.98
2023-01-26T03:13:52.598Z,25.13
2023-01-26T03:17:01.407Z,22.23
2023-01-26T03:20:24.044Z,21.63
2023-01-26T03:23:45.381Z,28.38
2023-01-26T03:27:09.850Z,21.42
2023-01-26T03:30:18.500Z,22.10
2023-01-26T03:33:22.018Z,21.80
2023-01-26T03:36:33.021Z,19.08
2023-01-26T03:39:56.632Z,21.52
2023-01-26T03:43:27.990Z,21.00
2023-01-26T03:46:51.860Z,22.17
2023-01-26T03:50:38.565Z,20.45
2023-01-26T03:54:02.124Z,22.20
2023-01-26T03:57:09.314Z,22.67
2023-01-26T04:00:16.653Z,22.95
2023-01-26T04:03:43.111Z,18.30
2023-01-26T04:07:08.496Z,21.35
2023-01-26T04:10:12.364Z,23.23
2023-01-26T04:13:43.561Z,21.30
2023-01-26T04:17:11.486Z,21.08
2023-01-26T04:20:45.065Z,22.77
2023-01-26T04:23:58.703Z,21.00
2023-01-26T04:27:04.617Z,19.17
2023-01-26T04:30:12.799Z,18.45
2023-01-26T04:33:28.361Z,18.85
2023-01-26T04:36:35.735Z,16.63
2023-01-26T04:39:40.339Z,17.90
2023-01-26T04:42:46.912Z,17.05
2023-01-26T04:46:22.729Z,18.70
2023-01-26T04:49:28.578Z,16.70
2023-01-26T04:52:32.877Z,14.67
2023-01-26T04:55:41.776Z,15.05
2023-01-26T04:58:48.528Z,18.20
2023-01-26T05:01:57.135Z,19.33
2023-01-26T05:05:00.206Z,17.00
2023-01-26T05:08:03.894Z,13.50
2023-01-26T05:11:10.673Z,17.50
2023-01-26T05:14:17.212Z,16.52
2023-01-26T05:17:23.452Z,14.48
2023-01-26T05:20:27.117Z,19.20
2023-01-26T05:23:30.317Z,18.23
2023-01-26T05:26:33.087Z,15.07
2023-01-26T05:29:37.090Z,22.45
2023-01-26T05:32:41.802Z,20.15
2023-01-26T05:35:48.361Z,18.23
2023-01-26T05:38:56.363Z,18.60
2023-01-26T05:42:00.362Z,16.17
2023-01-26T05:45:12.015Z,19.45
2023-01-26T05:48:27.419Z,16.83
2023-01-26T05:51:38.424Z,19.30
2023-01-26T05:54:42.231Z,16.03
2023-01-26T05:57:45.403Z,14.73
2023-01-26T06:00:51.843Z,14.85
2023-01-26T06:04:03.631Z,12.63
2023-01-26T06:07:10.341Z,15.05
2023-01-26T06:10:13.365Z,13.10
2023-01-26T06:13:20.505Z,14.50
2023-01-26T06:16:25.973Z,15.70
2023-01-26T06:19:44.128Z,16.48
2023-01-26T06:22:53.472Z,14.02
2023-01-26T06:26:02.401Z,14.57
2023-01-26T06:29:07.385Z,13.00
2023-01-26T06:32:16.732Z,16.90
2023-01-26T06:35:26.929Z,15.93
2023-01-26T06:38:30.452Z,12.52
2023-01-26T06:41:36.895Z,16.20
2023-01-26T06:44:41.002Z,18.30
2023-01-26T06:47:50.986Z,17.75
2023-01-26T06:52:17.368Z,16.23
2023-01-26T06:59:47.569Z,17.30
2023-01-26T07:04:19.489Z,13.68
2023-01-26T07:26:19.652Z,15.80
2023-01-26T07:39:02.242Z,16.15
2023-01-26T07:55:16.285Z,14.40
2023-01-26T08:48:15.450Z,15.02
2023-01-26T08:51:23.681Z,14.70
2023-01-26T08:54:26.428Z,16.35
2023-01-26T08:57:29.202Z,16.33
2023-01-26T09:00:34.850Z,15.83
2023-01-26T09:07:43.309Z,19.13
2023-01-26T09:14:22.403Z,15.02
2023-01-26T09:17:39.804Z,16.93
2023-01-26T09:20:52.107Z,18.50
2023-01-26T09:23:56.576Z,18.75
2023-01-26T09:27:03.988Z,17.65
2023-01-26T09:30:17.721Z,17.67
2023-01-26T09:37:08.160Z,19.88
2023-01-26T09:41:15.176Z,19.98
2023-01-26T09:45:06.473Z,12.65
2023-01-26T09:48:21.679Z,15.98
2023-01-26T09:52:13.228Z,14.13
2023-01-26T09:55:32.238Z,16.27
2023-01-26T09:58:42.992Z,18.50
2023-01-26T10:02:03.615Z,19.70
2023-01-26T10:05:28.221Z,18.67
2023-01-26T10:08:33.034Z,19.27
2023-01-26T10:12:28.794Z,16.95
2023-01-26T10:15:50.981Z,21.38
2023-01-26T10:19:03.515Z,22.30
2023-01-26T10:22:20.669Z,19.17
2023-01-26T10:25:38.694Z,16.03
2023-01-26T10:34:25.535Z,18.13
2023-01-26T10:37:31.154Z,14.82
2023-01-26T10:40:59.163Z,18.85
2023-01-26T10:44:58.669Z,19.03
2023-01-26T10:48:20.599Z,17.13
2023-01-26T10:51:35.218Z,21.90
2023-01-26T10:54:40.320Z,17.77
2023-01-26T10:59:00.571Z,15.52
2023-01-26T11:14:47.302Z,19.58
2023-01-26T11:18:58.057Z,16.80
2023-01-26T11:27:21.088Z,27.23
2023-01-26T11:36:23.390Z,24.80
2023-01-26T11:53:44.016Z,29.20
2023-01-26T12:30:24.892Z,22.50
2023-01-26T12:33:33.158Z,20.20
2023-01-26T12:37:20.150Z,22.83
2023-01-26T12:40:38.760Z,26.05
2023-01-26T12:44:01.479Z,20.75
2023-01-26T12:47:37.719Z,27.40
2023-01-26T12:51:32.366Z,23.27
2023-01-26T12:55:16.481Z,23.92
2023-01-26T12:58:34.609Z,28.83
2023-01-26T13:02:12.930Z,26.48
2023-01-26T13:05:38.219Z,22.97
2023-01-26T13:09:25.139Z,27.33
2023-01-26T13:12:45.926Z,22.27
2023-01-26T13:16:23.979Z,25.13
2023-01-26T13:28:43.721Z,29.88
2023-01-26T13:32:38.645Z,27.98
2023-01-26T13:36:48.510Z,22.95
2023-01-26T13:40:36.679Z,15.30
2023-01-26T13:44:34.948Z,22.03
2023-01-26T13:47:59.713Z,21.67
2023-01-26T13:51:08.247Z,23.65
2023-01-26T13:54:20.325Z,27.85
2023-01-26T13:57:36.426Z,24.60
2023-01-26T14:00:58.162Z,26.20
2023-01-26T14:04:24.269Z,24.58
2023-01-26T14:07:49.775Z,25.83
2023-01-26T14:15:17.078Z,25.85
2023-01-26T14:19:31.154Z,25.73
2023-01-26T14:22:38.860Z,34.13
2023-01-26T14:25:56.964Z,23.77
2023-01-26T14:29:03.672Z,24.55
2023-01-26T14:32:17.548Z,26.58
2023-01-26T14:35:25.278Z,26.97
2023-01-26T14:38:52.024Z,27.08
2023-01-26T14:41:58.743Z,30.10
2023-01-26T14:45:03.901Z,23.92
2023-01-26T14:48:15.581Z,25.83
2023-01-26T14:51:23.973Z,24.97
2023-01-26T14:54:31.580Z,29.35
2023-01-26T14:57:34.486Z,29.55
2023-01-26T15:00:38.868Z,32.28
2023-01-26T15:03:42.718Z,28.63
2023-01-26T15:06:48.517Z,30.60
2023-01-26T15:13:41.855Z,29.58
2023-01-26T15:17:02.929Z,25.77
2023-01-26T15:20:25.132Z,27.35
2023-01-26T15:23:35.787Z,25.60
2023-01-26T15:26:43.262Z,21.05
2023-01-26T15:29:48.693Z,21.92
2023-01-26T15:32:54.416Z,17.30
2023-01-26T15:36:03.649Z,26.67
2023-01-26T15:39:19.195Z,22.63
2023-01-26T15:42:27.394Z,20.35
2023-01-26T15:45:36.601Z,21.08
2023-01-26T15:48:40.490Z,17.63
2023-01-26T15:51:43.057Z,18.17
2023-01-26T15:54:48.589Z,16.93
2023-01-26T15:57:51.375Z,22.50
2023-01-26T16:00:54.026Z,14.13
2023-01-26T16:03:57.003Z,31.92
2023-01-26T16:07:11.188Z,15.52
2023-01-26T16:10:13.853Z,12.20
2023-01-26T16:13:18.950Z,14.63
2023-01-26T16:16:27.592Z,14.40
2023-01-26T16:19:35.243Z,14.85
2023-01-26T16:22:37.942Z,18.90
2023-01-26T16:25:42.887Z,13.37
2023-01-26T16:28:46.241Z,17.52
2023-01-26T16:31:48.932Z,19.40
2023-01-26T16:34:51.996Z,18.95
2023-01-26T16:37:54.134Z,21.10
2023-01-26T16:40:56.315Z,16.77
2023-01-26T16:44:01.357Z,23.80
2023-01-26T16:47:06.555Z,18.10
2023-01-26T16:50:12.185Z,17.15
2023-01-26T16:53:30.288Z,21.38
2023-01-26T16:56:41.961Z,21.87
2023-01-26T16:59:44.311Z,22.83
2023-01-26T17:02:53.009Z,22.95
2023-01-26T17:05:59.509Z,17.30
2023-01-26T17:09:01.818Z,19.30
2023-01-26T17:12:07.773Z,21.63
2023-01-26T17:15:13.782Z,16.95
2023-01-26T17:18:16.811Z,20.13
2023-01-26T17:21:20.594Z,18.33
2023-01-26T17:24:23.224Z,16.25
2023-01-26T17:27:25.812Z,18.93
2023-01-26T17:30:28.608Z,17.40
2023-01-26T17:33:31.356Z,13.05
2023-01-26T17:36:33.990Z,15.13
2023-01-26T17:39:36.344Z,16.15
2023-01-26T17:42:38.826Z,13.40
2023-01-26T17:45:43.839Z,19.40
2023-01-26T17:48:47.346Z,18.77
2023-01-26T17:52:01.574Z,17.85
2023-01-26T17:55:06.562Z,16.27
2023-01-26T17:58:10.811Z,16.73
2023-01-26T18:01:14.951Z,19.25
2023-01-26T18:04:17.636Z,16.15
2023-01-26T18:07:20.091Z,16.52
2023-01-26T18:10:22.673Z,20.10
2023-01-26T18:13:27.274Z,16.57
2023-01-26T18:16:29.959Z,16.88
2023-01-26T18:19:32.812Z,19.73
2023-01-26T18:22:35.278Z,16.77
2023-01-26T18:25:37.622Z,15.63
2023-01-26T18:28:42.842Z,15.50
2023-01-26T18:31:45.669Z,20.17
2023-01-26T18:34:50.022Z,15.90
2023-01-26T18:37:53.089Z,16.15
2023-01-26T18:40:55.966Z,18.98
2023-01-26T18:43:58.627Z,16.30
2023-01-26T18:47:03.434Z,15.57
2023-01-26T18:50:07.304Z,17.63
2023-01-26T18:53:09.935Z,17.20
2023-01-26T18:56:14.366Z,18.30
2023-01-26T18:59:18.008Z,17.63
2023-01-26T19:02:25.032Z,19.38
2023-01-26T19:05:27.119Z,13.45
2023-01-26T19:08:30.757Z,17.48
2023-01-26T19:11:36.356Z,14.40
2023-01-26T19:14:39.201Z,18.53
2023-01-26T19:17:45.053Z,16.77
2023-01-26T19:20:58.620Z,18.17
2023-01-26T19:24:05.751Z,14.25
2023-01-26T19:27:08.395Z,17.80
2023-01-26T19:30:12.286Z,15.33
2023-01-26T19:33:24.424Z,19.55
2023-01-26T19:36:28.766Z,16.50
2023-01-26T19:39:31.743Z,17.17
2023-01-26T19:42:34.312Z,18.23
2023-01-26T19:45:37.005Z,18.87
2023-01-26T19:48:39.738Z,15.60
2023-01-26T19:51:42.720Z,19.25
2023-01-26T19:54:45.381Z,14.35
2023-01-26T19:57:47.825Z,17.65
2023-01-26T20:00:53.408Z,18.53
2023-01-26T20:03:59.271Z,16.95
2023-01-26T20:07:05.403Z,22.13
2023-01-26T20:10:11.523Z,17.15
2023-01-26T20:13:14.578Z,15.77
2023-01-26T20:16:16.929Z,18.60
2023-01-26T20:19:19.824Z,17.65
2023-01-26T20:22:24.167Z,15.77
2023-01-26T20:25:28.007Z,14.90
2023-01-26T20:28:30.675Z,18.30
2023-01-26T20:31:33.410Z,13.30
2023-01-26T20:34:35.944Z,18.33
2023-01-26T20:37:38.645Z,22.10
2023-01-26T20:40:42.753Z,19.95
2023-01-26T20:43:59.355Z,20.02
2023-01-26T20:47:02.986Z,23.37
2023-01-26T20:50:05.823Z,19.75
2023-01-26T20:53:08.850Z,23.45
2023-01-26T20:56:12.760Z,22.67
2023-01-26T20:59:16.720Z,20.70
2023-01-26T21:02:19.613Z,22.40
2023-01-26T21:05:22.074Z,23.63
2023-01-26T21:08:26.031Z,19.55
2023-01-26T21:11:31.277Z,18.88
2023-01-26T21:14:34.053Z,22.08
2023-01-26T21:17:36.750Z,19.40
2023-01-26T21:20:40.907Z,18.73
2023-01-26T21:23:43.172Z,23.77
2023-01-26T21:26:45.426Z,24.15
2023-01-26T21:29:50.458Z,22.55
2023-01-26T21:32:53.019Z,22.00
2023-01-26T21:35:59.355Z,28.05
2023-01-26T21:39:02.647Z,20.50
2023-01-26T21:42:05.112Z,19.08
2023-01-26T21:45:27.114Z,21.20
2023-01-26T21:48:35.773Z,20.87
2023-01-26T21:51:56.436Z,21.92
2023-01-26T21:54:59.135Z,22.05
2023-01-26T21:58:20.309Z,22.20
2023-01-26T22:01:22.651Z,22.23
2023-01-26T22:04:30.562Z,21.20
2023-01-26T22:07:32.630Z,20.88
2023-01-26T22:10:35.111Z,20.35
2023-01-26T22:13:37.438Z,24.73
2023-01-26T22:16:39.835Z,22.00
2023-01-26T22:19:42.592Z,25.40
2023-01-26T22:22:45.434Z,24.95
2023-01-26T22:25:49.210Z,24.75
2023-01-26T22:28:54.242Z,21.80
2023-01-26T22:31:56.729Z,23.23
2023-01-26T22:34:59.257Z,23.23
2023-01-26T22:38:01.419Z,19.88
2023-01-26T22:41:05.633Z,27.05
2023-01-26T22:44:07.987Z,21.23
2023-01-26T22:47:10.531Z,22.48
2023-01-26T22:50:13.100Z,24.30
2023-01-26T22:53:16.002Z,20.83
2023-01-26T22:56:19.667Z,23.45
2023-01-26T22:59:22.018Z,23.42
2023-01-26T23:02:24.603Z,23.90
2023-01-26T23:05:27.971Z,22.03
2023-01-26T23:08:32.073Z,22.67
2023-01-26T23:11:35.145Z,21.45
2023-01-26T23:14:37.611Z,20.13
2023-01-26T23:17:39.649Z,20.85
2023-01-26T23:20:42.181Z,24.87
2023-01-26T23:23:45.181Z,20.67
2023-01-26T23:26:47.526Z,19.98
2023-01-26T23:29:49.598Z,18.73
2023-01-26T23:32:52.021Z,21.38
2023-01-26T23:35:54.523Z,20.23
2023-01-26T23:38:56.713Z,27.92
2023-01-26T23:41:58.846Z,25.95
2023-01-26T23:45:00.888Z,24.83
2023-01-26T23:48:03.234Z,24.17
2023-01-26T23:51:08.787Z,26.73
2023-01-26T23:54:11.331Z,26.42
2023-01-26T23:57:13.379Z,21.75
